This is the latest recevied weather packets stored in our database for station/object KE0TNI-13. If no packets are shown the sender has not sent any weather packets the latest 1 day(s).
| Time | Temp. | Humidity | Pressure | Rain* | Wind** | Luminosity | Snow |
|---|---|---|---|---|---|---|---|
| 1836274656 | 8.33° C | 57% | 1028 hPa | 0 mm | 0.89 m/s, 105° | 0 W/m² | - |
| 1836274509 | 7.78° C | 56% | 1028.3 hPa | 0 mm | 1.34 m/s, 100° | 0 W/m² | - |
| 1836274354 | 8.89° C | 54% | 1028.1 hPa | 0 mm | 0.89 m/s, 101° | 0 W/m² | - |
| 1836274208 | 8.33° C | 54% | 1027.9 hPa | 0 mm | 0.89 m/s, 101° | 0 W/m² | - |
| 1836274053 | 8.33° C | 52% | 1028 hPa | 0 mm | 1.34 m/s, 103° | 0 W/m² | - |
| 1778044703 | -5° C | 96% | 1015.4 hPa | 0 mm | 0.45 m/s, 89° | 0 W/m² | - |
| 1778044399 | -5° C | 96% | 1015.3 hPa | 0 mm | 0 m/s | 0 W/m² | - |
| 1778044096 | -5° C | 96% | 1015.4 hPa | 0 mm | 0.45 m/s, 89° | 0 W/m² | - |
| 1778043794 | -5° C | 96% | 1015.2 hPa | 0 mm | 0.45 m/s, 87° | 0 W/m² | - |
| 1778043490 | -5° C | 96% | 1015.2 hPa | 0 mm | 0 m/s | 0 W/m² | - |
| 1778043187 | -5° C | 96% | 1015.2 hPa | 0 mm | 0 m/s | 0 W/m² | - |
| 1778042884 | -5° C | 96% | 1014.8 hPa | 0 mm | 0 m/s | 0 W/m² | - |
| 1778042581 | -5° C | 96% | 1015 hPa | 0 mm | 0.45 m/s, 82° | 0 W/m² | - |
| 1778042278 | -5° C | 96% | 1015.2 hPa | 0 mm | 0.45 m/s, 100° | 0 W/m² | - |
| 1778041976 | -5° C | 96% | 1014.9 hPa | 0 mm | 0 m/s | 0 W/m² | - |
| 1778041675 | -4.44° C | 96% | 1015 hPa | 0 mm | 0.45 m/s, 97° | 0 W/m² | - |
| 1778041373 | -4.44° C | 96% | 1015.2 hPa | 0 mm | 0 m/s | 0 W/m² | - |
| 1778041071 | -4.44° C | 96% | 1015.2 hPa | 0 mm | 0.45 m/s, 85° | 0 W/m² | - |
| 1778040768 | -4.44° C | 96% | 1015 hPa | 0 mm | 0 m/s | 0 W/m² | - |
| 1778040465 | -4.44° C | 96% | 1015.3 hPa | 0 mm | 0.45 m/s, 95° | 0 W/m² | - |
| 1778040162 | -4.44° C | 96% | 1015.3 hPa | 0 mm | 0.45 m/s, 80° | 0 W/m² | - |
| 1778039859 | -4.44° C | 96% | 1015.2 hPa | 0 mm | 0 m/s | 0 W/m² | - |
| 1778039556 | -4.44° C | 96% | 1015 hPa | 0 mm | 0.45 m/s, 107° | 0 W/m² | - |
| 1778039253 | -4.44° C | 96% | 1014.9 hPa | 0 mm | 0.45 m/s, 85° | 0 W/m² | - |
| 1778038950 | -4.44° C | 96% | 1014.5 hPa | 0 mm | 0.45 m/s, 97° | 0 W/m² | - |
* Rain latest hour (hover to see other rain measurements)
** Current wind speed in m/s (hover to see current wind gust speed)